createdAt,value
2018-06-29T00:04:24.842Z,85.72
2018-06-29T00:09:19.535Z,85.47
2018-06-29T00:14:14.206Z,83.64
2018-06-29T00:19:08.864Z,82.95
2018-06-29T00:24:03.606Z,82.87
2018-06-29T00:28:58.274Z,83.34
2018-06-29T00:33:52.918Z,83.61
2018-06-29T00:38:47.546Z,83.09
2018-06-29T00:43:42.799Z,82.75
2018-06-29T00:48:37.385Z,84.00
2018-06-29T00:53:31.970Z,83.45
2018-06-29T00:58:26.572Z,83.13
2018-06-29T01:03:21.198Z,82.98
2018-06-29T01:08:15.943Z,83.75
2018-06-29T01:13:10.563Z,83.85
2018-06-29T01:18:05.330Z,83.78
2018-06-29T01:22:59.919Z,82.28
2018-06-29T01:27:54.531Z,83.10
2018-06-29T01:32:49.159Z,82.45
2018-06-29T01:37:43.813Z,81.78
2018-06-29T01:42:38.410Z,82.50
2018-06-29T01:47:33.063Z,83.64
2018-06-29T01:52:27.658Z,83.16
2018-06-29T01:57:22.308Z,82.18
2018-06-29T02:02:16.956Z,82.61
2018-06-29T02:07:11.542Z,84.28
2018-06-29T02:12:06.346Z,85.06
2018-06-29T02:17:01.039Z,83.59
2018-06-29T02:21:55.702Z,83.73
2018-06-29T02:26:50.315Z,84.45
2018-06-29T02:31:44.945Z,83.85
2018-06-29T02:36:39.559Z,83.16
2018-06-29T02:41:34.223Z,83.68
2018-06-29T02:46:28.943Z,83.53
2018-06-29T02:51:23.583Z,83.97
2018-06-29T02:56:18.243Z,83.24
2018-06-29T03:01:12.904Z,83.76
2018-06-29T03:06:07.560Z,83.39
2018-06-29T03:11:02.192Z,82.52
2018-06-29T03:15:56.857Z,82.48
2018-06-29T03:20:51.554Z,82.61
2018-06-29T03:25:46.290Z,83.12
2018-06-29T03:30:40.946Z,83.16
2018-06-29T03:35:35.579Z,83.04
2018-06-29T03:40:30.331Z,81.45
2018-06-29T03:45:24.926Z,81.26
2018-06-29T03:50:19.523Z,81.64
2018-06-29T03:55:14.127Z,80.60
2018-06-29T04:00:08.823Z,81.05
2018-06-29T04:05:03.447Z,81.19
2018-06-29T04:09:58.046Z,81.02
2018-06-29T04:14:52.602Z,81.40
2018-06-29T04:19:47.164Z,80.02
2018-06-29T04:24:41.921Z,82.18
2018-06-29T04:29:36.554Z,81.35
2018-06-29T04:34:31.159Z,81.25
2018-06-29T04:39:25.764Z,80.45
2018-06-29T04:44:20.382Z,79.58
2018-06-29T04:49:15.044Z,78.57
2018-06-29T04:54:09.583Z,80.07
2018-06-29T04:59:04.195Z,78.20
2018-06-29T05:03:58.810Z,79.71
2018-06-29T05:08:53.426Z,79.41
2018-06-29T05:13:48.002Z,80.03
2018-06-29T05:18:42.600Z,79.40
2018-06-29T05:23:37.191Z,77.39
2018-06-29T05:28:31.776Z,77.27
2018-06-29T05:33:26.354Z,77.72
2018-06-29T05:38:21.829Z,78.56
2018-06-29T05:43:16.374Z,78.45
2018-06-29T05:48:10.988Z,76.53
2018-06-29T05:53:05.795Z,76.39
2018-06-29T05:58:00.380Z,76.75
2018-06-29T06:02:54.971Z,75.35
2018-06-29T06:07:49.570Z,75.77
2018-06-29T06:12:44.150Z,75.20
2018-06-29T06:17:38.723Z,75.10
2018-06-29T06:22:33.466Z,75.15
2018-06-29T06:27:28.162Z,73.49
2018-06-29T06:32:22.882Z,76.01
2018-06-29T06:37:17.868Z,73.76
2018-06-29T06:42:12.518Z,73.62
2018-06-29T06:47:07.181Z,74.91
2018-06-29T06:52:01.913Z,73.77
2018-06-29T06:56:56.595Z,74.40
2018-06-29T07:01:51.211Z,76.70
2018-06-29T07:06:45.873Z,74.05
2018-06-29T07:11:40.594Z,74.34
2018-06-29T07:16:35.269Z,74.51
2018-06-29T07:21:29.908Z,73.68
2018-06-29T07:26:24.605Z,75.53
2018-06-29T07:31:19.289Z,73.71
2018-06-29T07:36:13.978Z,73.00
2018-06-29T07:41:08.560Z,72.91
2018-06-29T07:46:03.184Z,69.75
2018-06-29T07:50:57.833Z,68.32
2018-06-29T07:55:52.534Z,70.10
2018-06-29T08:00:47.182Z,68.78
2018-06-29T08:05:41.745Z,67.04
2018-06-29T08:10:36.529Z,65.62
2018-06-29T08:15:31.523Z,67.55
2018-06-29T08:20:26.134Z,68.21
2018-06-29T08:25:20.838Z,65.41
2018-06-29T08:30:15.327Z,65.87
2018-06-29T08:35:10.976Z,69.59
2018-06-29T08:40:06.335Z,69.38
2018-06-29T08:45:00.991Z,65.60
2018-06-29T08:49:55.635Z,62.78
2018-06-29T08:54:50.278Z,60.75
2018-06-29T08:59:44.944Z,62.53
2018-06-29T09:04:39.289Z,62.33
2018-06-29T09:09:33.952Z,59.11
2018-06-29T09:14:28.745Z,58.27
2018-06-29T09:19:23.379Z,61.11
2018-06-29T09:24:18.320Z,61.93
2018-06-29T09:29:13.087Z,61.74
2018-06-29T09:34:07.773Z,61.90
2018-06-29T09:39:02.393Z,63.92
2018-06-29T09:43:57.011Z,66.58
2018-06-29T09:48:51.600Z,63.79
2018-06-29T09:53:46.187Z,62.65
2018-06-29T09:58:40.800Z,64.84
2018-06-29T10:03:35.422Z,63.07
2018-06-29T10:08:30.691Z,64.33
2018-06-29T10:13:25.283Z,66.32
2018-06-29T10:18:19.964Z,65.10
2018-06-29T10:23:14.579Z,65.10
2018-06-29T10:28:09.287Z,63.95
2018-06-29T10:33:04.678Z,64.12
2018-06-29T10:37:59.621Z,64.90
2018-06-29T10:42:54.228Z,66.09
2018-06-29T10:47:48.803Z,64.85
2018-06-29T10:52:43.497Z,64.55
2018-06-29T10:57:38.129Z,63.70
2018-06-29T11:02:32.755Z,61.23
2018-06-29T11:07:27.420Z,60.80
2018-06-29T11:12:22.067Z,62.12
2018-06-29T11:17:16.872Z,63.41
2018-06-29T11:22:11.462Z,63.59
2018-06-29T11:27:06.038Z,60.80
2018-06-29T11:32:00.699Z,58.14
2018-06-29T11:36:56.910Z,58.66
2018-06-29T11:41:51.540Z,58.11
2018-06-29T11:46:46.172Z,56.80
2018-06-29T11:51:40.788Z,56.83
2018-06-29T11:56:35.383Z,55.21
2018-06-29T12:01:30.223Z,55.87
2018-06-29T12:06:24.805Z,54.69
2018-06-29T12:11:19.450Z,54.27
2018-06-29T12:16:14.024Z,57.26
2018-06-29T12:21:08.644Z,56.03
2018-06-29T12:26:04.086Z,54.40
2018-06-29T12:30:58.696Z,57.49
2018-06-29T12:35:53.289Z,57.57
2018-06-29T12:40:47.911Z,54.90
2018-06-29T12:45:42.535Z,54.78
2018-06-29T12:50:37.255Z,55.56
2018-06-29T12:55:31.911Z,55.95
2018-06-29T13:00:26.555Z,56.48
2018-06-29T13:05:21.233Z,57.33
2018-06-29T13:10:15.791Z,56.12
2018-06-29T13:15:10.427Z,53.68
2018-06-29T13:20:05.679Z,54.27
2018-06-29T13:25:00.375Z,53.53
2018-06-29T13:29:54.927Z,54.03
2018-06-29T13:34:49.537Z,55.82
2018-06-29T13:39:44.146Z,54.56
2018-06-29T13:44:38.785Z,55.64
2018-06-29T13:49:33.397Z,55.22
2018-06-29T13:54:27.990Z,55.53
2018-06-29T13:59:22.619Z,54.46
2018-06-29T14:04:17.256Z,55.04
2018-06-29T14:09:11.865Z,53.45
2018-06-29T14:14:06.639Z,54.86
2018-06-29T14:19:01.222Z,56.92
2018-06-29T14:23:55.815Z,53.86
2018-06-29T14:28:50.453Z,55.10
2018-06-29T14:33:45.036Z,54.88
2018-06-29T14:38:39.698Z,54.21
2018-06-29T14:43:34.267Z,56.21
2018-06-29T14:48:28.901Z,54.88
2018-06-29T14:53:23.615Z,54.01
2018-06-29T14:58:18.218Z,51.47
2018-06-29T15:03:12.854Z,52.72
2018-06-29T15:08:07.570Z,52.10
2018-06-29T15:13:02.114Z,53.37
2018-06-29T15:17:56.748Z,51.46
2018-06-29T15:22:51.353Z,51.66
2018-06-29T15:27:45.965Z,52.07
2018-06-29T15:32:40.572Z,54.13
2018-06-29T15:37:35.189Z,51.59
2018-06-29T15:42:29.871Z,52.62
2018-06-29T15:47:24.452Z,50.63
2018-06-29T15:52:19.168Z,50.67
2018-06-29T15:57:13.802Z,52.11
2018-06-29T16:02:08.582Z,52.53
2018-06-29T16:07:03.259Z,50.91
2018-06-29T16:11:57.843Z,52.95
2018-06-29T16:16:52.476Z,53.96
2018-06-29T16:21:46.746Z,54.00
2018-06-29T16:26:41.331Z,52.74
2018-06-29T16:31:35.906Z,52.49
2018-06-29T16:36:30.533Z,53.50
2018-06-29T16:41:25.127Z,53.54
2018-06-29T16:46:19.722Z,53.49
2018-06-29T16:51:14.351Z,54.24
2018-06-29T16:56:09.142Z,51.92
2018-06-29T17:01:03.796Z,51.49
2018-06-29T17:05:58.393Z,53.44
2018-06-29T17:10:52.987Z,53.76
2018-06-29T17:15:47.578Z,55.01
2018-06-29T17:20:42.906Z,54.84
2018-06-29T17:25:37.556Z,55.24
2018-06-29T17:30:32.198Z,55.31
2018-06-29T17:35:26.814Z,56.49
2018-06-29T17:40:21.133Z,56.57
2018-06-29T17:45:15.767Z,55.71
2018-06-29T17:50:10.418Z,56.57
2018-06-29T17:55:05.247Z,56.04
2018-06-29T17:59:59.534Z,55.67
2018-06-29T18:04:54.160Z,55.53
2018-06-29T18:09:48.813Z,57.25
2018-06-29T18:14:43.597Z,57.97
2018-06-29T18:19:38.213Z,58.36
2018-06-29T18:24:32.899Z,58.22
2018-06-29T18:29:27.250Z,59.09
2018-06-29T18:34:21.905Z,57.12
2018-06-29T18:39:16.658Z,58.35
2018-06-29T18:44:11.278Z,58.70
2018-06-29T18:49:07.182Z,56.58
2018-06-29T18:54:01.815Z,57.85
2018-06-29T18:58:56.580Z,57.52
2018-06-29T19:03:51.205Z,60.33
2018-06-29T19:08:45.859Z,59.77
2018-06-29T19:13:40.497Z,60.89
2018-06-29T19:18:35.215Z,59.31
2018-06-29T19:23:29.812Z,59.10
2018-06-29T19:28:24.409Z,59.70
2018-06-29T19:33:19.075Z,59.57
2018-06-29T19:38:13.770Z,60.76
2018-06-29T19:43:08.445Z,60.64
2018-06-29T19:48:03.039Z,60.73
2018-06-29T19:52:57.797Z,62.70
2018-06-29T19:57:52.448Z,63.25
2018-06-29T20:02:47.160Z,62.75
2018-06-29T20:07:41.877Z,62.85
2018-06-29T20:12:36.503Z,63.62
2018-06-29T20:17:31.320Z,63.44
2018-06-29T20:22:26.899Z,64.63
2018-06-29T20:27:21.570Z,65.19
2018-06-29T20:32:16.192Z,65.89
2018-06-29T20:37:10.852Z,66.04
2018-06-29T20:42:05.579Z,65.96
2018-06-29T20:47:00.206Z,66.55
2018-06-29T20:51:54.839Z,66.76
2018-06-29T20:56:49.569Z,67.62
2018-06-29T21:01:44.259Z,67.51
2018-06-29T21:06:38.966Z,68.17
2018-06-29T21:11:33.634Z,67.68
2018-06-29T21:16:28.282Z,67.89
2018-06-29T21:21:22.894Z,67.73
2018-06-29T21:26:17.585Z,68.22
2018-06-29T21:31:12.273Z,68.08
2018-06-29T21:36:06.923Z,69.08
2018-06-29T21:41:01.590Z,68.83
2018-06-29T21:45:56.246Z,69.91
2018-06-29T21:50:50.846Z,70.00
2018-06-29T21:55:45.452Z,70.08
2018-06-29T22:00:41.628Z,70.16
2018-06-29T22:05:36.823Z,70.33
2018-06-29T22:10:31.506Z,70.67
2018-06-29T22:15:26.100Z,70.84
2018-06-29T22:20:21.051Z,71.77
2018-06-29T22:25:15.713Z,72.83
2018-06-29T22:30:10.397Z,73.07
2018-06-29T22:35:05.118Z,72.53
2018-06-29T22:39:59.791Z,73.23
2018-06-29T22:44:54.411Z,72.90
2018-06-29T22:49:49.072Z,73.24
2018-06-29T22:54:43.741Z,74.50
2018-06-29T22:59:38.469Z,74.34
2018-06-29T23:04:33.230Z,74.38
2018-06-29T23:09:27.926Z,74.07
2018-06-29T23:14:22.592Z,74.03
2018-06-29T23:19:17.249Z,74.00
2018-06-29T23:24:11.858Z,73.68
2018-06-29T23:29:06.535Z,74.69
2018-06-29T23:34:01.150Z,74.53
2018-06-29T23:38:55.880Z,75.33
2018-06-29T23:43:50.197Z,74.40
2018-06-29T23:48:44.886Z,73.78
2018-06-29T23:53:39.536Z,75.04
2018-06-29T23:58:34.236Z,74.90
